Spencer, Louisiana
Current Conditions -  °F | °C
As of 11:53 AM on Saturday 20 Dec 2014 (Local Time) from KMLU Reporting Station
Clear Clear  
Wind Chill: 54°   Ceiling: Unl
Heat Index: 54°   Visibility: 10mi
Dew Point: 43°   Wind: 8mph
Humidity: 66%   Direction: 70°ENE
Pressure: 30.23"   Gusts: NA
Location:  32.6145°N, 92.1402°W
Report Text: KMLU 201753Z 07007KT 10SM CLR 12/06 A3023 RMK AO2 SLP237 T01220061 10122 20039 58013
Loading
Personal Weather Stations






























Interactive Weather Map New forecast layout! Learn more

10-Day Weather Forecast

Advertisements
Track Severe Weather on mobile